Time;durP1;ratioP1;P1;durP2;ratioP2;P2;SDS_P1;SDS_P2;PMS_P1;PMS_P2;Temp;Humidity;BMP_temperature;BMP_pressure;BME280_temperature;BME280_humidity;BME280_pressure;Samples;Min_cycle;Max_cycle;Signal;HPM_P1;HPM_P2
2023/01/18 00:00:00;;;;;;;;;;;;;;;1.35;83.21;96990.97;1088480;46;19949;-78
2023/01/18 00:01:05;;;;;;;;;;;;;;;1.34;83.33;96991.94;1087989;54;19943;-77
2023/01/18 00:02:06;;;;;;;;;;;;;;;1.34;83.36;96997.22;1088967;46;19942;-77
2023/01/18 00:03:12;;;;;;;;;;;;;;;1.29;83.44;96999.50;1088040;54;19943;-77
2023/01/18 00:04:13;;;;;;;;;;;;;;;1.30;83.61;97001.16;1088041;54;19946;-77
2023/01/18 00:05:18;;;;;;;;;;;;;;;1.34;83.84;96993.75;1087980;54;19942;-77
2023/01/18 00:06:19;;;;;;;;;;;;;;;1.36;83.44;96994.44;1088041;54;19939;-78
2023/01/18 00:07:23;;;;;;;;;;;;;;;1.37;83.42;97003.97;1088033;54;20597;-78
2023/01/18 00:08:24;;;;;;;;;;;;;;;1.32;83.46;97001.84;1088075;54;19946;-79
2023/01/18 00:09:27;;;;;;;;;;;;;;;1.34;83.79;97002.47;1087880;54;19943;-77
2023/01/18 00:10:29;;;;;;;;;;;;;;;1.32;83.47;96993.94;1088113;54;19927;-78
2023/01/18 00:11:32;;;;;;;;;;;;;;;1.34;83.72;96996.41;1087992;54;19943;-78
2023/01/18 00:12:33;;;;;;;;;;;;;;;1.34;83.76;96991.13;1088021;54;19942;-79
2023/01/18 00:13:37;;;;;;;;;;;;;;;1.38;83.67;97001.19;1087987;54;19985;-77
2023/01/18 00:14:38;;;;;;;;;;;;;;;1.36;82.88;97000.50;1089634;46;19943;-77
2023/01/18 00:15:44;;;;;;;;;;;;;;;1.28;83.27;97005.75;1089435;39;20498;-78
2023/01/18 00:16:45;;;;;;;;;;;;;;;1.29;83.68;97004.78;1088791;39;20543;-79
2023/01/18 00:17:50;;;;;;;;;;;;;;;1.32;83.36;97007.09;1088067;54;19965;-77
2023/01/18 00:18:52;;;;;;;;;;;;;;;1.37;83.63;96998.72;1088075;54;19959;-78
2023/01/18 00:19:55;;;;;;;;;;;;;;;1.32;82.78;97008.88;1090918;39;20163;-78
2023/01/18 00:20:59;;;;;;;;;;;;;;;1.28;83.39;97003.13;1087977;54;19939;-78
2023/01/18 00:22:03;;;;;;;;;;;;;;;1.27;83.33;97001.47;1091390;31;20591;-78
2023/01/18 00:23:04;;;;;;;;;;;;;;;1.23;83.59;97005.41;1087573;54;20471;-81
2023/01/18 00:24:09;;;;;;;;;;;;;;;1.23;83.90;97010.66;1086760;54;20560;-80
2023/01/18 00:25:11;;;;;;;;;;;;;;;1.28;83.87;97012.81;1088998;46;20061;-79
2023/01/18 00:26:14;;;;;;;;;;;;;;;1.32;83.66;97008.88;1086953;54;19962;-80
2023/01/18 00:27:15;;;;;;;;;;;;;;;1.38;83.41;97002.97;1086663;54;19965;-81
2023/01/18 00:28:23;;;;;;;;;;;;;;;1.42;83.16;97006.13;1087286;54;19958;-80
2023/01/18 00:29:24;;;;;;;;;;;;;;;1.45;82.94;97000.53;1087640;54;19938;-80
2023/01/18 00:30:28;;;;;;;;;;;;;;;1.49;82.65;97004.50;1095220;31;20495;-80
2023/01/18 00:31:32;;;;;;;;;;;;;;;1.51;82.37;97005.16;1087437;54;19934;-79
2023/01/18 00:32:36;;;;;;;;;;;;;;;1.47;82.35;97001.19;1088490;46;19947;-80
2023/01/18 00:33:37;;;;;;;;;;;;;;;1.51;82.66;97008.59;1087274;54;19973;-82
2023/01/18 00:34:40;;;;;;;;;;;;;;;1.54;82.51;97007.44;1087293;54;20026;-80
2023/01/18 00:35:41;;;;;;;;;;;;;;;1.59;82.40;97014.88;1087727;54;19951;-81
2023/01/18 00:36:45;;;;;;;;;;;;;;;1.56;82.14;97008.13;1090214;39;20490;-80
2023/01/18 00:37:47;;;;;;;;;;;;;;;1.59;82.02;97004.34;1087705;54;19942;-80
2023/01/18 00:38:52;;;;;;;;;;;;;;;1.60;82.08;97003.34;1087965;54;19933;-80
2023/01/18 00:39:53;;;;;;;;;;;;;;;1.54;82.37;97015.34;1088043;54;19934;-80
2023/01/18 00:40:58;;;;;;;;;;;;;;;1.56;82.61;97011.56;1088102;54;20002;-80
2023/01/18 00:44:31;;;;;;;;;;;;;;;1.45;82.33;97005.78;1088009;54;19946;-81
2023/01/18 00:45:35;;;;;;;;;;;;;;;1.40;82.66;97004.47;1087980;54;19963;-80
2023/01/18 00:46:39;;;;;;;;;;;;;;;1.44;82.86;97006.78;1087999;54;19965;-81
2023/01/18 00:47:42;;;;;;;;;;;;;;;1.47;82.68;97011.72;1088093;54;19927;-81
2023/01/18 00:48:44;;;;;;;;;;;;;;;1.42;82.92;97006.13;1088004;54;20433;-81
2023/01/18 00:49:47;;;;;;;;;;;;;;;1.47;83.26;96998.56;1088034;54;19951;-80
2023/01/18 00:50:48;;;;;;;;;;;;;;;1.48;82.49;97003.66;1088038;54;19942;-81
2023/01/18 00:51:53;;;;;;;;;;;;;;;1.39;81.87;97005.47;1088519;54;19927;-83
2023/01/18 00:52:56;;;;;;;;;;;;;;;1.33;82.60;97006.09;1109039;47;19938;-85
2023/01/18 00:54:00;;;;;;;;;;;;;;;1.32;83.14;97016.78;1088499;54;19981;-83
2023/01/18 00:55:02;;;;;;;;;;;;;;;1.36;83.01;97008.41;1088548;54;19939;-84
2023/01/18 00:57:09;;;;;;;;;;;;;;;1.33;82.61;97011.34;1088632;54;19954;-85
2023/01/18 00:58:10;;;;;;;;;;;;;;;1.31;82.79;97015.97;1088538;54;19926;-83
2023/01/18 00:59:20;;;;;;;;;;;;;;;1.30;83.37;97010.84;1088610;54;19954;-84
2023/01/18 01:00:22;;;;;;;;;;;;;;;1.34;83.12;97013.00;1088615;54;19933;-84
2023/01/18 01:01:27;;;;;;;;;;;;;;;1.33;82.90;97013.97;1088517;54;19935;-82
2023/01/18 01:02:30;;;;;;;;;;;;;;;1.30;82.70;97014.31;1088266;54;19943;-81
2023/01/18 01:06:43;;;;;;;;;;;;;;;1.32;83.10;97014.16;1087759;54;19954;-81
2023/01/18 01:07:29;;;;;;;;;;;;;;;1.29;83.70;97019.72;1087967;54;19927;-80
2023/01/18 01:08:33;;;;;;;;;;;;;;;1.28;83.55;97016.28;1087842;54;19943;-81
2023/01/18 01:09:34;;;;;;;;;;;;;;;1.32;83.55;97019.41;1087837;54;19942;-80
2023/01/18 01:10:38;;;;;;;;;;;;;;;1.31;83.16;97013.34;1087890;54;19966;-80
2023/01/18 01:11:39;;;;;;;;;;;;;;;1.27;83.09;97014.63;1088232;39;20825;-81
2023/01/18 01:26:46;;;;;;;;;;;;;;;1.64;81.91;97023.13;1088283;54;19986;-78
2023/01/18 01:27:47;;;;;;;;;;;;;;;1.66;81.89;97021.97;1088240;54;19939;-78
2023/01/18 01:28:52;;;;;;;;;;;;;;;1.67;81.61;97023.63;1088703;46;19943;-78
2023/01/18 01:29:53;;;;;;;;;;;;;;;1.71;81.51;97027.56;1088200;54;19943;-78
2023/01/18 01:30:59;;;;;;;;;;;;;;;1.75;81.60;97024.59;1088208;54;19982;-81
2023/01/18 01:32:01;;;;;;;;;;;;;;;1.76;81.52;97032.34;1087825;54;19939;-81
2023/01/18 01:33:08;;;;;;;;;;;;;;;1.80;81.63;97024.94;1087670;54;19943;-81
2023/01/18 01:34:09;;;;;;;;;;;;;;;1.80;81.38;97033.66;1087641;54;19962;-82
2023/01/18 01:35:13;;;;;;;;;;;;;;;1.81;81.36;97034.47;1088196;46;19938;-81
2023/01/18 01:36:15;;;;;;;;;;;;;;;1.78;81.53;97029.56;1087939;39;20363;-80
2023/01/18 01:37:18;;;;;;;;;;;;;;;1.74;81.74;97041.38;1087636;54;19939;-82
2023/01/18 01:38:20;;;;;;;;;;;;;;;1.74;81.90;97039.59;1087644;54;20520;-82
2023/01/18 01:39:23;;;;;;;;;;;;;;;1.75;81.88;97040.41;1087585;54;19950;-81
2023/01/18 01:40:24;;;;;;;;;;;;;;;1.74;81.83;97033.50;1087419;54;19947;-80
2023/01/18 01:41:29;;;;;;;;;;;;;;;1.74;81.95;97041.38;1087936;46;19969;-81
2023/01/18 01:42:30;;;;;;;;;;;;;;;1.70;81.61;97039.06;1087584;54;19966;-81
2023/01/18 01:43:40;;;;;;;;;;;;;;;1.68;81.93;97046.34;1087584;54;19951;-81
2023/01/18 01:44:43;;;;;;;;;;;;;;;1.70;82.36;97046.97;1087524;54;19950;-81
2023/01/18 01:45:48;;;;;;;;;;;;;;;1.75;81.89;97045.69;1087849;39;20439;-82
2023/01/18 01:46:51;;;;;;;;;;;;;;;1.74;81.42;97049.28;1087573;54;19962;-81
2023/01/18 01:47:56;;;;;;;;;;;;;;;1.75;81.64;97046.47;1087104;54;19950;-81
2023/01/18 01:49:01;;;;;;;;;;;;;;;1.79;81.58;97047.00;1085572;54;20019;-81
2023/01/18 01:50:10;;;;;;;;;;;;;;;1.77;81.74;97054.25;1086092;46;19939;-80
2023/01/18 01:51:11;;;;;;;;;;;;;;;1.79;81.47;97052.28;1085894;39;20360;-79
2023/01/18 01:52:16;;;;;;;;;;;;;;;1.74;81.63;97047.50;1086596;39;20338;-81
2023/01/18 01:53:17;;;;;;;;;;;;;;;1.75;81.51;97056.22;1085644;54;19969;-81
2023/01/18 01:54:23;;;;;;;;;;;;;;;1.66;81.72;97058.84;1085708;54;19950;-79
2023/01/18 01:55:27;;;;;;;;;;;;;;;1.66;82.24;97058.84;1085670;54;19973;-80
2023/01/18 01:56:31;;;;;;;;;;;;;;;1.66;82.00;97050.09;1085065;54;20018;-81
2023/01/18 01:57:35;;;;;;;;;;;;;;;1.67;82.47;97057.84;1085338;54;19957;-80
2023/01/18 01:58:39;;;;;;;;;;;;;;;1.69;82.05;97066.41;1085215;54;19954;-80
2023/01/18 01:59:42;;;;;;;;;;;;;;;1.70;81.79;97054.06;1085427;54;19969;-80
2023/01/18 02:00:46;;;;;;;;;;;;;;;1.62;81.68;97062.75;1085512;54;19946;-80
2023/01/18 02:01:47;;;;;;;;;;;;;;;1.65;82.22;97066.91;1085422;54;19946;-79
2023/01/18 02:02:52;;;;;;;;;;;;;;;1.63;81.83;97066.25;1085548;54;19958;-80
2023/01/18 02:03:54;;;;;;;;;;;;;;;1.60;82.34;97069.19;1085618;54;19950;-80
2023/01/18 02:05:02;;;;;;;;;;;;;;;1.60;81.95;97059.50;1085952;39;20330;-80
2023/01/18 02:06:08;;;;;;;;;;;;;;;1.61;81.97;97066.38;1086107;46;19974;-81
2023/01/18 02:07:12;;;;;;;;;;;;;;;1.63;81.89;97074.94;1088305;54;19999;-80
2023/01/18 02:08:21;;;;;;;;;;;;;;;1.67;81.90;97073.66;1088433;54;19934;-81
2023/01/18 02:09:24;;;;;;;;;;;;;;;1.61;81.91;97066.38;1086865;54;19950;-80
2023/01/18 02:10:25;;;;;;;;;;;;;;;1.65;82.09;97075.63;1085661;54;19951;-81
2023/01/18 02:11:29;;;;;;;;;;;;;;;1.66;81.94;97069.38;1085455;54;19950;-80
2023/01/18 02:12:31;;;;;;;;;;;;;;;1.63;81.94;97074.94;1085818;39;20539;-81
2023/01/18 02:13:35;;;;;;;;;;;;;;;1.66;82.20;97079.06;1085729;54;19946;-81
2023/01/18 02:14:36;;;;;;;;;;;;;;;1.68;82.13;97075.31;1085356;54;20535;-81
2023/01/18 02:15:45;;;;;;;;;;;;;;;1.69;82.12;97082.22;1087853;54;20398;-78
2023/01/18 02:16:52;;;;;;;;;;;;;;;1.69;81.76;97078.75;1089594;39;20798;-79
2023/01/18 02:18:02;;;;;;;;;;;;;;;1.67;81.67;97078.91;1088166;54;19993;-78
2023/01/18 02:19:12;;;;;;;;;;;;;;;1.69;82.01;97087.50;1088177;54;19965;-78
2023/01/18 02:20:31;;;;;;;;;;;;;;;1.69;81.58;97082.22;1088028;54;20535;-79
2023/01/18 02:21:38;;;;;;;;;;;;;;;1.70;81.67;97083.84;1088169;54;19969;-78
2023/01/18 02:22:52;;;;;;;;;;;;;;;1.71;81.51;97082.06;1088132;54;19947;-78
2023/01/18 02:24:13;;;;;;;;;;;;;;;1.62;81.87;97080.38;1088157;54;19943;-77
2023/01/18 02:25:35;;;;;;;;;;;;;;;1.64;82.01;97081.06;1088094;54;19950;-78
2023/01/18 02:26:54;;;;;;;;;;;;;;;1.62;81.90;97083.84;1087815;54;19947;-78
2023/01/18 02:28:06;;;;;;;;;;;;;;;1.65;81.73;97083.53;1087755;54;19942;-78
2023/01/18 02:29:16;;;;;;;;;;;;;;;1.65;81.56;97083.53;1087788;54;19943;-79
2023/01/18 02:30:22;;;;;;;;;;;;;;;1.65;81.62;97083.53;1087800;54;19954;-79
2023/01/18 02:31:28;;;;;;;;;;;;;;;1.66;81.61;97089.59;1087850;54;19954;-77
2023/01/18 02:32:36;;;;;;;;;;;;;;;1.62;81.44;97088.28;1088730;46;19970;-77
2023/01/18 02:33:44;;;;;;;;;;;;;;;1.63;82.00;97085.47;1087735;54;19949;-78
2023/01/18 02:34:47;;;;;;;;;;;;;;;1.58;81.82;97093.06;1087858;54;20586;-78
2023/01/18 02:35:52;;;;;;;;;;;;;;;1.59;81.83;97089.44;1087904;54;19938;-78
2023/01/18 02:37:00;;;;;;;;;;;;;;;1.59;81.91;97092.06;1088714;39;20491;-79
2023/01/18 02:38:08;;;;;;;;;;;;;;;1.59;81.87;97094.69;1087847;54;20595;-78
2023/01/18 02:39:22;;;;;;;;;;;;;;;1.54;81.95;97096.97;1090336;39;20528;-79
2023/01/18 02:40:29;;;;;;;;;;;;;;;1.54;82.12;97096.97;1087915;54;19954;-80
2023/01/18 02:46:59;;;;;;;;;;;;;;;1.50;81.65;97100.94;1087914;54;19926;-78
2023/01/18 02:48:01;;;;;;;;;;;;;;;1.47;81.63;97095.97;1087787;54;19940;-78
2023/01/18 02:50:08;;;;;;;;;;;;;;;1.35;81.40;97106.78;1088139;54;19957;-81
2023/01/18 02:51:09;;;;;;;;;;;;;;;1.33;82.20;97106.09;1088197;54;20328;-81
2023/01/18 02:52:27;;;;;;;;;;;;;;;1.36;82.26;97100.53;1088173;54;19946;-80
2023/01/18 02:53:31;;;;;;;;;;;;;;;1.33;82.12;97110.56;1090714;46;19945;-79
2023/01/18 02:54:34;;;;;;;;;;;;;;;1.35;82.12;97104.16;1087603;54;19951;-81
2023/01/18 02:55:41;;;;;;;;;;;;;;;1.31;81.84;97105.47;1086617;54;19981;-80
2023/01/18 02:56:46;;;;;;;;;;;;;;;1.34;82.19;97106.94;1086576;54;19969;-81
2023/01/18 02:57:49;;;;;;;;;;;;;;;1.33;81.64;97107.94;1086524;54;19965;-80
2023/01/18 02:58:56;;;;;;;;;;;;;;;1.32;81.83;97107.13;1086999;54;19938;-80
2023/01/18 03:00:02;;;;;;;;;;;;;;;1.34;81.80;97113.03;1088133;54;20257;-80
2023/01/18 03:01:08;;;;;;;;;;;;;;;1.30;81.44;97105.59;1088858;46;19966;-81
2023/01/18 03:02:12;;;;;;;;;;;;;;;1.31;81.97;97112.53;1087786;54;19950;-80
2023/01/18 03:03:17;;;;;;;;;;;;;;;1.27;81.92;97117.28;1087099;54;19927;-81
2023/01/18 03:04:21;;;;;;;;;;;;;;;1.25;81.77;97108.72;1086981;54;19950;-81
2023/01/18 03:05:26;;;;;;;;;;;;;;;1.20;81.92;97111.81;1086660;54;20010;-82
2023/01/18 03:06:28;;;;;;;;;;;;;;;1.15;81.66;97111.47;1086966;54;20602;-81
2023/01/18 03:07:34;;;;;;;;;;;;;;;1.17;82.15;97111.31;1086922;54;19957;-81
2023/01/18 03:08:37;;;;;;;;;;;;;;;1.15;82.14;97116.75;1086762;54;19946;-81
2023/01/18 03:09:42;;;;;;;;;;;;;;;1.23;82.80;97119.41;1086848;54;19946;-82
2023/01/18 03:10:49;;;;;;;;;;;;;;;1.28;82.58;97112.81;1087096;54;19954;-79
2023/01/18 03:11:56;;;;;;;;;;;;;;;1.21;82.09;97112.66;1086910;54;20045;-81
2023/01/18 03:12:58;;;;;;;;;;;;;;;1.19;82.53;97117.25;1086671;54;19947;-82
2023/01/18 03:14:09;;;;;;;;;;;;;;;1.21;83.18;97117.91;1087022;54;19950;-81
2023/01/18 03:15:17;;;;;;;;;;;;;;;1.28;82.75;97118.09;1087054;54;19946;-81
2023/01/18 03:16:23;;;;;;;;;;;;;;;1.27;82.17;97124.38;1087030;54;19977;-81
2023/01/18 03:17:28;;;;;;;;;;;;;;;1.30;82.08;97114.34;1087100;54;19951;-81
2023/01/18 03:18:36;;;;;;;;;;;;;;;1.26;82.15;97115.63;1086912;54;19953;-81
2023/01/18 03:20:59;;;;;;;;;;;;;;;1.30;82.33;97121.41;1086200;54;19970;-80
2023/01/18 03:22:01;;;;;;;;;;;;;;;1.33;82.45;97121.91;1086307;47;20033;-80
2023/01/18 03:24:24;;;;;;;;;;;;;;;1.37;81.84;97122.44;1086282;54;19946;-80
2023/01/18 03:25:28;;;;;;;;;;;;;;;1.40;82.35;97117.69;1086389;54;19939;-80
2023/01/18 03:26:32;;;;;;;;;;;;;;;1.40;82.18;97122.94;1086054;54;19946;-80
2023/01/18 03:34:13;;;;;;;;;;;;;;;1.33;81.73;97126.34;1085897;54;19946;-80
2023/01/18 03:35:15;;;;;;;;;;;;;;;1.34;82.06;97128.81;1086260;54;20020;-79
2023/01/18 03:36:22;;;;;;;;;;;;;;;1.32;82.51;97133.44;1086196;54;20795;-80
2023/01/18 03:37:26;;;;;;;;;;;;;;;1.30;82.28;97132.75;1086259;54;19950;-80
2023/01/18 03:38:30;;;;;;;;;;;;;;;1.32;82.00;97140.50;1086249;54;19958;-79
2023/01/18 03:39:33;;;;;;;;;;;;;;;1.32;82.24;97132.59;1086134;54;19954;-80
2023/01/18 03:40:38;;;;;;;;;;;;;;;1.33;82.26;97135.06;1086091;54;19950;-80
2023/01/18 03:41:45;;;;;;;;;;;;;;;1.35;82.53;97130.47;1086262;54;19950;-80
2023/01/18 03:42:49;;;;;;;;;;;;;;;1.37;82.32;97131.16;1086298;54;19958;-80
2023/01/18 03:43:55;;;;;;;;;;;;;;;1.39;81.93;97130.97;1086398;54;19935;-80
2023/01/18 03:45:01;;;;;;;;;;;;;;;1.38;81.96;97124.91;1086184;54;19939;-80
2023/01/18 03:46:03;;;;;;;;;;;;;;;1.35;82.40;97134.94;1085701;54;19951;-79
2023/01/18 03:47:10;;;;;;;;;;;;;;;1.29;81.82;97131.13;1085656;54;19953;-81
2023/01/18 03:48:11;;;;;;;;;;;;;;;1.30;82.28;97127.50;1085873;47;20712;-79
2023/01/18 03:49:16;;;;;;;;;;;;;;;1.31;82.30;97133.56;1085512;54;19951;-79
2023/01/18 03:50:18;;;;;;;;;;;;;;;1.31;82.48;97129.16;1085799;54;19951;-82
2023/01/18 03:51:24;;;;;;;;;;;;;;;1.32;82.41;97136.06;1085665;54;19946;-79
2023/01/18 03:52:30;;;;;;;;;;;;;;;1.33;82.57;97129.81;1085728;54;19947;-80
2023/01/18 03:53:37;;;;;;;;;;;;;;;1.29;82.16;97136.38;1085775;54;19957;-79
2023/01/18 03:54:42;;;;;;;;;;;;;;;1.29;82.36;97139.00;1085516;54;19938;-79
2023/01/18 03:55:48;;;;;;;;;;;;;;;1.28;82.24;97140.00;1085665;54;19950;-79
2023/01/18 03:56:51;;;;;;;;;;;;;;;1.28;81.98;97145.25;1085490;54;19957;-79
2023/01/18 03:57:57;;;;;;;;;;;;;;;1.21;81.72;97138.97;1086229;54;19946;-81
2023/01/18 03:59:01;;;;;;;;;;;;;;;1.20;81.76;97147.84;1086428;54;19946;-80
2023/01/18 04:00:07;;;;;;;;;;;;;;;1.22;82.23;97143.25;1086479;54;20453;-81
2023/01/18 04:01:08;;;;;;;;;;;;;;;1.24;82.28;97154.44;1086533;54;19974;-81
2023/01/18 04:02:15;;;;;;;;;;;;;;;1.25;81.88;97145.56;1086342;54;19975;-79
2023/01/18 04:03:16;;;;;;;;;;;;;;;1.24;81.96;97159.69;1086459;54;19956;-81
2023/01/18 04:04:20;;;;;;;;;;;;;;;1.22;81.66;97161.69;1086716;54;19947;-80
2023/01/18 04:05:21;;;;;;;;;;;;;;;1.22;81.97;97161.69;1086709;54;19951;-81
2023/01/18 04:06:25;;;;;;;;;;;;;;;1.22;82.01;97164.31;1086770;54;19961;-79
2023/01/18 04:07:26;;;;;;;;;;;;;;;1.25;82.12;97163.97;1086692;54;19977;-80
2023/01/18 04:08:30;;;;;;;;;;;;;;;1.26;82.24;97165.63;1086581;54;19994;-81
2023/01/18 04:09:31;;;;;;;;;;;;;;;1.24;82.09;97162.31;1086973;54;19970;-81
2023/01/18 04:10:35;;;;;;;;;;;;;;;1.17;82.53;97170.03;1086502;54;19958;-80
2023/01/18 04:11:36;;;;;;;;;;;;;;;1.20;82.66;97174.97;1086367;54;19951;-80
2023/01/18 04:12:39;;;;;;;;;;;;;;;1.17;82.82;97171.84;1086484;54;19978;-81
2023/01/18 04:13:41;;;;;;;;;;;;;;;1.18;82.49;97173.50;1089367;39;20348;-81
2023/01/18 04:14:53;;;;;;;;;;;;;;;1.18;82.44;97176.94;1086692;54;19957;-80
2023/01/18 04:15:54;;;;;;;;;;;;;;;1.17;82.32;97183.19;1088286;47;19957;-79
2023/01/18 04:16:58;;;;;;;;;;;;;;;1.14;82.41;97174.75;1088236;54;19982;-79
2023/01/18 04:18:02;;;;;;;;;;;;;;;1.13;82.68;97173.16;1087295;54;19939;-80
2023/01/18 04:19:07;;;;;;;;;;;;;;;1.12;82.51;97174.94;1086836;46;19950;-81
2023/01/18 04:20:09;;;;;;;;;;;;;;;1.11;82.61;97180.34;1086415;54;19950;-81
2023/01/18 04:21:13;;;;;;;;;;;;;;;1.13;82.84;97184.47;1087108;54;19950;-80
2023/01/18 04:22:14;;;;;;;;;;;;;;;1.12;82.58;97182.00;1087036;54;20401;-80
2023/01/18 04:23:18;;;;;;;;;;;;;;;1.14;82.64;97183.50;1087414;54;19946;-81
2023/01/18 04:24:19;;;;;;;;;;;;;;;1.15;82.71;97179.91;1087879;39;20706;-81
2023/01/18 04:25:23;;;;;;;;;;;;;;;1.13;83.01;97187.13;1090903;39;20735;-82
2023/01/18 04:26:24;;;;;;;;;;;;;;;1.10;83.11;97190.03;1086975;54;19974;-81
2023/01/18 04:27:27;;;;;;;;;;;;;;;1.08;83.26;97192.84;1086658;54;19953;-81
2023/01/18 04:28:29;;;;;;;;;;;;;;;1.08;83.03;97192.03;1087118;54;19969;-80
2023/01/18 04:29:32;;;;;;;;;;;;;;;1.08;83.05;97187.56;1087547;54;19994;-80
2023/01/18 04:30:33;;;;;;;;;;;;;;;1.08;82.67;97187.56;1086784;54;19970;-81
2023/01/18 04:31:37;;;;;;;;;;;;;;;1.09;82.72;97194.50;1086662;54;19962;-81
2023/01/18 04:32:38;;;;;;;;;;;;;;;1.07;82.62;97191.19;1086748;54;19946;-81
2023/01/18 04:33:44;;;;;;;;;;;;;;;1.03;82.82;97195.13;1086800;54;19950;-80
2023/01/18 04:34:48;;;;;;;;;;;;;;;1.05;82.92;97187.88;1086631;54;19954;-82
2023/01/18 04:35:49;;;;;;;;;;;;;;;1.03;83.04;97189.00;1086698;54;19973;-81
2023/01/18 04:36:53;;;;;;;;;;;;;;;1.01;83.20;97194.44;1086874;54;19954;-81
2023/01/18 04:37:54;;;;;;;;;;;;;;;0.99;83.33;97193.75;1088105;39;20465;-81
2023/01/18 04:38:58;;;;;;;;;;;;;;;0.96;83.54;97199.31;1087174;54;19946;-82
2023/01/18 04:39:59;;;;;;;;;;;;;;;0.96;83.48;97191.44;1087088;54;19954;-81
2023/01/18 04:41:04;;;;;;;;;;;;;;;0.94;83.34;97185.53;1087087;54;19957;-81
2023/01/18 04:42:05;;;;;;;;;;;;;;;0.96;82.97;97191.44;1087093;54;19978;-82
2023/01/18 04:43:09;;;;;;;;;;;;;;;0.96;83.07;97190.63;1087186;54;19942;-81
2023/01/18 04:44:10;;;;;;;;;;;;;;;0.92;83.26;97190.91;1087280;54;19957;-81
2023/01/18 04:45:14;;;;;;;;;;;;;;;0.93;83.13;97194.38;1087141;54;19951;-82
2023/01/18 04:46:17;;;;;;;;;;;;;;;0.91;83.39;97196.34;1087221;54;19950;-81
2023/01/18 04:47:18;;;;;;;;;;;;;;;0.84;83.64;97201.38;1087494;54;19958;-80
2023/01/18 04:48:22;;;;;;;;;;;;;;;0.84;84.02;97196.13;1087512;54;19946;-80
2023/01/18 04:49:26;;;;;;;;;;;;;;;0.86;84.54;97193.31;1086896;54;19943;-80
2023/01/18 04:50:30;;;;;;;;;;;;;;;0.84;84.43;97195.31;1089200;39;20432;-81
2023/01/18 04:51:31;;;;;;;;;;;;;;;0.80;84.97;97199.22;1087369;54;19950;-82
2023/01/18 04:52:37;;;;;;;;;;;;;;;0.82;85.45;97203.34;1087667;54;19962;-80
2023/01/18 04:53:38;;;;;;;;;;;;;;;0.82;84.54;97198.06;1087496;54;19947;-81
2023/01/18 04:54:42;;;;;;;;;;;;;;;0.80;84.36;97199.22;1087542;54;20298;-81
2023/01/18 04:55:43;;;;;;;;;;;;;;;0.77;84.43;97200.34;1087111;54;19946;-82
2023/01/18 04:56:47;;;;;;;;;;;;;;;0.71;84.78;97195.72;1087355;54;20015;-82
2023/01/18 04:57:52;;;;;;;;;;;;;;;0.72;84.94;97203.44;1087215;54;19950;-81
2023/01/18 04:58:56;;;;;;;;;;;;;;;0.67;84.75;97200.41;1087180;54;19957;-81
2023/01/18 04:59:59;;;;;;;;;;;;;;;0.66;85.24;97203.22;1087453;54;19942;-81
2023/01/18 05:01:03;;;;;;;;;;;;;;;0.64;85.39;97208.63;1087530;54;19956;-83
2023/01/18 05:02:04;;;;;;;;;;;;;;;0.67;85.30;97216.19;1087753;54;19951;-82
2023/01/18 05:03:07;;;;;;;;;;;;;;;0.68;85.38;97207.34;1087761;54;20014;-81
2023/01/18 05:04:08;;;;;;;;;;;;;;;0.69;85.38;97213.44;1087611;54;19926;-82
2023/01/18 05:05:15;;;;;;;;;;;;;;;0.72;85.57;97218.38;1087890;46;20342;-81
2023/01/18 05:06:18;;;;;;;;;;;;;;;0.74;85.35;97219.06;1087722;54;20527;-81
2023/01/18 05:07:25;;;;;;;;;;;;;;;0.75;85.64;97220.72;1088534;39;20443;-81
2023/01/18 05:08:26;;;;;;;;;;;;;;;0.78;86.00;97221.22;1087737;54;20194;-81
2023/01/18 05:09:30;;;;;;;;;;;;;;;0.84;85.96;97221.63;1087785;54;20002;-81
2023/01/18 05:10:32;;;;;;;;;;;;;;;0.87;85.62;97227.38;1087780;54;19951;-81
2023/01/18 05:11:36;;;;;;;;;;;;;;;0.91;85.48;97226.09;1087868;54;19957;-82
2023/01/18 05:12:37;;;;;;;;;;;;;;;0.91;84.95;97225.28;1088006;54;20429;-82
2023/01/18 05:13:41;;;;;;;;;;;;;;;0.93;85.17;97228.59;1087966;54;19958;-81
2023/01/18 05:14:42;;;;;;;;;;;;;;;0.95;84.99;97239.75;1087425;54;19973;-81
2023/01/18 05:15:45;;;;;;;;;;;;;;;0.98;84.84;97238.66;1087049;54;19938;-81
2023/01/18 05:16:47;;;;;;;;;;;;;;;1.03;85.01;97237.22;1086938;54;19966;-79
2023/01/18 05:17:51;;;;;;;;;;;;;;;1.03;84.40;97237.22;1086797;54;20053;-81
2023/01/18 05:18:52;;;;;;;;;;;;;;;1.07;84.65;97238.56;1087060;54;19950;-80
2023/01/18 05:19:55;;;;;;;;;;;;;;;1.08;84.35;97240.19;1092859;31;20504;-81
2023/01/18 05:20:59;;;;;;;;;;;;;;;1.08;84.32;97244.66;1086994;54;19957;-80
2023/01/18 05:22:03;;;;;;;;;;;;;;;1.12;84.57;97253.88;1087693;54;19943;-81
2023/01/18 05:23:09;;;;;;;;;;;;;;;1.15;84.49;97255.38;1088159;54;19942;-80
2023/01/18 05:24:13;;;;;;;;;;;;;;;1.17;84.34;97256.03;1087974;54;19950;-81
2023/01/18 05:25:14;;;;;;;;;;;;;;;1.16;84.24;97255.22;1087996;54;19947;-80
2023/01/18 05:26:19;;;;;;;;;;;;;;;1.16;83.66;97252.59;1089206;39;20482;-82
2023/01/18 05:27:20;;;;;;;;;;;;;;;1.16;83.54;97264.91;1089527;46;19974;-80
2023/01/18 05:28:24;;;;;;;;;;;;;;;1.18;84.03;97265.59;1089340;46;19934;-80
2023/01/18 05:29:25;;;;;;;;;;;;;;;1.19;83.33;97267.25;1088337;54;19922;-82
2023/01/18 05:30:29;;;;;;;;;;;;;;;1.19;83.65;97265.44;1088998;46;19954;-80
2023/01/18 05:31:30;;;;;;;;;;;;;;;1.18;83.16;97265.59;1088631;54;19923;-83
2023/01/18 05:32:34;;;;;;;;;;;;;;;1.14;83.05;97275.59;1088843;54;19947;-83
2023/01/18 05:33:35;;;;;;;;;;;;;;;1.13;83.46;97278.41;1088946;54;19946;-85
2023/01/18 05:34:39;;;;;;;;;;;;;;;1.14;83.49;97282.66;1088865;54;19929;-83
2023/01/18 05:35:40;;;;;;;;;;;;;;;1.18;83.65;97289.28;1088924;54;19938;-83
2023/01/18 05:36:48;;;;;;;;;;;;;;;1.19;83.71;97286.50;1096517;46;19923;-83
2023/01/18 05:37:49;;;;;;;;;;;;;;;1.21;83.21;97289.00;1089242;46;19934;-84
2023/01/18 05:38:55;;;;;;;;;;;;;;;1.21;83.36;97292.44;1089018;54;19941;-84
2023/01/18 05:39:56;;;;;;;;;;;;;;;1.22;82.97;97288.00;1088771;54;19930;-84
2023/01/18 05:41:00;;;;;;;;;;;;;;;1.24;83.10;97307.09;1088852;54;19927;-82
2023/01/18 05:42:01;;;;;;;;;;;;;;;1.19;83.22;97298.84;1088726;54;19938;-83
2023/01/18 05:43:05;;;;;;;;;;;;;;;1.14;83.20;97298.44;1088802;54;19923;-84
2023/01/18 05:44:06;;;;;;;;;;;;;;;1.12;83.48;97295.97;1088759;54;19934;-81
2023/01/18 05:45:10;;;;;;;;;;;;;;;1.09;83.50;97302.38;1088689;54;20711;-84
2023/01/18 05:46:11;;;;;;;;;;;;;;;1.10;84.05;97300.56;1090706;46;19931;-84
2023/01/18 05:47:15;;;;;;;;;;;;;;;1.09;83.73;97305.00;1088828;54;19934;-81
2023/01/18 05:48:16;;;;;;;;;;;;;;;1.06;83.64;97305.31;1089999;46;19938;-83
2023/01/18 05:49:20;;;;;;;;;;;;;;;1.04;84.35;97304.63;1091554;46;19978;-84
2023/01/18 05:50:22;;;;;;;;;;;;;;;1.08;84.56;97305.19;1087815;54;19938;-82
2023/01/18 05:51:25;;;;;;;;;;;;;;;1.12;84.17;97316.22;1088028;54;19943;-82
2023/01/18 05:52:29;;;;;;;;;;;;;;;1.15;84.04;97318.53;1089640;46;19954;-84
2023/01/18 05:53:36;;;;;;;;;;;;;;;1.16;83.68;97318.41;1088829;54;19934;-84
2023/01/18 05:54:37;;;;;;;;;;;;;;;1.13;83.69;97318.69;1088994;47;19922;-84
2023/01/18 05:55:41;;;;;;;;;;;;;;;1.16;83.40;97320.19;1111666;39;20621;-83
2023/01/18 05:56:42;;;;;;;;;;;;;;;1.13;83.79;97326.59;1088858;54;19927;-84
2023/01/18 05:57:48;;;;;;;;;;;;;;;1.15;83.91;97319.38;1092636;46;19934;-84
2023/01/18 05:58:49;;;;;;;;;;;;;;;1.14;83.69;97322.97;1103495;46;19981;-84
2023/01/18 05:59:53;;;;;;;;;;;;;;;1.18;84.14;97326.13;1096810;46;19983;-85
2023/01/18 06:02:05;;;;;;;;;;;;;;;1.11;84.04;97330.34;1081102;39;20491;31
2023/01/18 06:03:12;;;;;;;;;;;;;;;1.15;84.56;97334.31;1083520;39;20144;31
2023/01/18 06:04:23;;;;;;;;;;;;;;;1.15;84.79;97342.22;1088958;54;19930;-84
2023/01/18 06:05:24;;;;;;;;;;;;;;;1.14;84.19;97348.44;1092323;46;19923;-83
2023/01/18 06:06:29;;;;;;;;;;;;;;;1.13;83.96;97345.00;1094041;46;19933;-84
2023/01/18 06:08:38;;;;;;;;;;;;;;;1.18;84.21;97348.00;1089224;54;19927;-84
2023/01/18 06:10:46;;;;;;;;;;;;;;;1.19;84.42;97352.28;1089241;54;19926;-84
2023/01/18 06:12:51;;;;;;;;;;;;;;;1.20;83.99;97353.13;1089186;54;20060;-85
2023/01/18 06:14:59;;;;;;;;;;;;;;;1.21;83.80;97352.97;1089136;54;19927;-84
2023/01/18 06:17:14;;;;;;;;;;;;;;;1.22;84.47;97369.59;1089190;54;19927;-88
2023/01/18 06:18:18;;;;;;;;;;;;;;;1.23;84.13;97366.81;1088944;54;19930;-82
2023/01/18 06:22:44;;;;;;;;;;;;;;;1.29;83.46;97377.69;1088635;54;20891;-83
2023/01/18 06:23:50;;;;;;;;;;;;;;;1.25;83.47;97379.81;1104240;46;19950;-85